Time;durP1;ratioP1;P1;durP2;ratioP2;P2;SDS_P1;SDS_P2;PMS_P1;PMS_P2;Temp;Humidity;BMP_temperature;BMP_pressure;BME280_temperature;BME280_humidity;BME280_pressure;Samples;Min_cycle;Max_cycle;Signal;HPM_P1;HPM_P2
2023/12/01 00:00:52;;;;;;;27.85;13.10;;;;;;;1.38;100.00;98249.81;12182174;19;20010;-84
2023/12/01 00:04:54;;;;;;;;;;;;;;;1.34;100.00;98276.59;12207450;19;20006;-84
2023/12/01 00:08:56;;;;;;;30.67;13.07;;;;;;;1.31;100.00;98283.28;12203427;19;19925;-84
2023/12/01 00:12:58;;;;;;;23.40;10.77;;;;;;;1.31;100.00;98277.88;12182187;19;20009;-84
2023/12/01 00:17:00;;;;;;;30.77;14.17;;;;;;;1.31;100.00;98249.91;12198015;19;20039;-85
2023/12/01 00:21:02;;;;;;;29.38;13.90;;;;;;;1.28;100.00;98231.34;12199246;19;20352;-84
2023/12/01 00:25:04;;;;;;;33.23;13.87;;;;;;;1.30;100.00;98237.38;12176118;19;20024;-83
2023/12/01 00:29:06;;;;;;;33.10;14.15;;;;;;;1.35;100.00;98235.63;12207006;19;20003;-84
2023/12/01 00:33:08;;;;;;;36.10;14.93;;;;;;;1.39;100.00;98267.75;12204235;19;20353;-84
2023/12/01 00:37:10;;;;;;;34.63;13.57;;;;;;;1.46;100.00;98282.03;12182516;19;20055;-85
2023/12/01 00:41:12;;;;;;;38.70;15.50;;;;;;;1.54;100.00;98271.69;12220378;19;19999;-85
2023/12/01 00:45:15;;;;;;;32.20;10.70;;;;;;;1.63;100.00;98265.97;12223206;19;20376;-85
2023/12/01 00:49:17;;;;;;;32.80;14.20;;;;;;;1.69;100.00;98275.91;12243619;19;20006;-84
2023/12/01 00:53:26;;;;;;;38.70;16.20;;;;;;;1.71;100.00;98268.34;12258740;19;20029;-84
2023/12/01 00:57:27;;;;;;;39.47;15.63;;;;;;;1.75;100.00;98262.22;12216646;19;20331;-84
2023/12/01 01:01:30;;;;;;;39.97;14.37;;;;;;;1.86;100.00;98273.38;12198817;19;21108;-84
2023/12/01 01:05:32;;;;;;;37.55;15.73;;;;;;;1.93;100.00;98261.31;12202936;19;20025;-84
2023/12/01 01:09:34;;;;;;;42.00;16.85;;;;;;;2.02;100.00;98259.09;12203607;19;19998;-84
2023/12/01 01:13:36;;;;;;;39.97;14.93;;;;;;;2.04;100.00;98262.44;12177449;19;20011;-84
2023/12/01 01:17:38;;;;;;;43.30;14.77;;;;;;;2.01;100.00;98261.00;12195108;19;20006;-83
2023/12/01 01:21:40;;;;;;;37.00;14.93;;;;;;;2.07;100.00;98263.84;12193507;19;20794;-84
2023/12/01 01:25:42;;;;;;;43.83;16.45;;;;;;;2.08;100.00;98266.31;12162830;19;20028;-83
2023/12/01 01:29:44;;;;;;;44.20;14.77;;;;;;;2.07;100.00;98258.44;12192844;19;20010;-83
2023/12/01 01:33:46;;;;;;;45.03;15.98;;;;;;;2.12;100.00;98285.72;12204411;19;20018;-83
2023/12/01 01:37:48;;;;;;;38.33;14.43;;;;;;;2.11;100.00;98284.88;12173234;19;20003;-83
2023/12/01 01:41:50;;;;;;;40.78;15.38;;;;;;;2.09;100.00;98286.19;12204879;19;20010;-83
2023/12/01 01:46:02;;;;;;;39.97;15.17;;;;;;;2.09;100.00;98270.72;12185064;19;20006;-84
2023/12/01 01:50:07;;;;;;;48.10;16.90;;;;;;;2.07;100.00;98269.28;12206503;19;20013;-84
2023/12/01 01:54:10;;;;;;;48.15;15.90;;;;;;;2.10;100.00;98279.69;12199423;19;20014;-85
2023/12/01 01:58:12;;;;;;;46.95;16.25;;;;;;;2.15;100.00;98294.25;12174970;19;20021;-83
2023/12/01 02:02:14;;;;;;;47.15;16.67;;;;;;;2.20;100.00;98285.38;12210647;19;20082;-84
2023/12/01 02:06:16;;;;;;;43.92;14.57;;;;;;;2.19;100.00;98287.28;12204139;19;20009;-83
2023/12/01 02:10:19;;;;;;;41.83;16.70;;;;;;;2.25;100.00;98288.22;12182508;19;20042;-84
2023/12/01 02:14:22;;;;;;;45.15;16.45;;;;;;;2.31;100.00;98321.81;12203346;19;20010;-83
2023/12/01 02:18:26;;;;;;;40.05;15.02;;;;;;;2.28;100.00;98310.34;12201841;19;20006;-83
2023/12/01 02:22:28;;;;;;;37.35;13.65;;;;;;;2.26;100.00;98301.59;12186810;19;20006;-84
2023/12/01 02:26:29;;;;;;;40.58;16.08;;;;;;;2.35;100.00;98320.28;12201489;19;20010;-85
2023/12/01 02:30:31;;;;;;;37.45;13.55;;;;;;;2.38;100.00;98322.53;12203930;19;20002;-83
2023/12/01 02:34:33;;;;;;;35.63;12.85;;;;;;;2.41;100.00;98303.03;12184362;19;20031;-84
2023/12/01 02:38:35;;;;;;;39.10;13.32;;;;;;;2.38;100.00;98315.22;12207221;19;20010;-84
2023/12/01 02:42:37;;;;;;;44.85;16.52;;;;;;;2.40;100.00;98317.69;12222391;19;20014;-84
2023/12/01 02:46:38;;;;;;;38.05;13.73;;;;;;;2.43;100.00;98322.66;12203063;19;20034;-85
2023/12/01 02:50:40;;;;;;;43.30;13.73;;;;;;;2.35;100.00;98328.44;12205436;19;20007;-85
2023/12/01 02:54:43;;;;;;;37.20;13.15;;;;;;;2.39;100.00;98307.88;12202400;19;20011;-85
2023/12/01 02:58:45;;;;;;;35.53;13.27;;;;;;;2.36;100.00;98328.22;12179463;19;20900;-84
2023/12/01 03:02:47;;;;;;;36.15;12.38;;;;;;;2.35;100.00;98323.84;12201407;19;20014;-84
2023/12/01 03:06:49;;;;;;;35.85;13.00;;;;;;;2.38;100.00;98327.97;12195104;19;20006;-85
2023/12/01 03:10:51;;;;;;;31.45;11.57;;;;;;;2.35;100.00;98339.31;12199762;19;20011;-82
2023/12/01 03:14:53;;;;;;;35.33;13.37;;;;;;;2.40;100.00;98339.44;12199674;19;20010;-83
2023/12/01 03:19:10;;;;;;;35.83;12.27;;;;;;;2.42;100.00;98331.88;12173636;19;20033;-86
2023/12/01 03:23:12;;;;;;;37.03;11.95;;;;;;;2.38;100.00;98325.25;12199159;19;20022;-86
2023/12/01 03:27:14;;;;;;;37.30;14.05;;;;;;;2.37;100.00;98318.97;12197122;19;20096;-86
2023/12/01 03:31:16;;;;;;;33.13;12.70;;;;;;;2.33;100.00;98328.69;12178283;19;20030;-86
2023/12/01 03:35:24;;;;;;;34.03;13.43;;;;;;;2.39;100.00;98326.91;12196948;19;20010;-86
2023/12/01 03:39:26;;;;;;;31.15;12.70;;;;;;;2.38;100.00;98317.94;12200285;19;20059;-85
2023/12/01 03:43:28;;;;;;;23.97;10.27;;;;;;;2.33;100.00;98316.97;12176182;19;20070;-85
2023/12/01 03:47:30;;;;;;;31.23;12.13;;;;;;;2.27;100.00;98316.00;12193288;19;20803;-85
2023/12/01 03:51:32;;;;;;;21.37;8.00;;;;;;;2.28;100.00;98328.53;12194679;19;20011;-85
2023/12/01 03:55:34;;;;;;;31.20;12.70;;;;;;;2.27;100.00;98335.88;12183558;19;20263;-84
2023/12/01 03:59:37;;;;;;;27.85;10.50;;;;;;;2.31;100.00;98340.84;12200749;19;20387;-85
2023/12/01 04:03:38;;;;;;;28.52;10.43;;;;;;;2.32;100.00;98328.91;12196407;19;20018;-84
2023/12/01 04:07:44;;;;;;;25.25;10.27;;;;;;;2.31;100.00;98329.97;12173777;19;20465;-86
2023/12/01 04:11:47;;;;;;;23.98;8.77;;;;;;;2.28;100.00;98326.63;12198967;19;19999;-85
2023/12/01 04:15:50;;;;;;;22.40;9.83;;;;;;;2.34;100.00;98343.09;12196000;19;20049;-87
2023/12/01 04:19:52;;;;;;;21.08;8.38;;;;;;;2.37;100.00;98346.16;12213159;19;20022;-87
2023/12/01 04:23:54;;;;;;;26.03;9.27;;;;;;;2.35;100.00;98339.31;12212445;19;20010;-85
2023/12/01 04:27:57;;;;;;;22.08;8.63;;;;;;;2.39;100.00;98337.78;12178891;19;20015;-85
2023/12/01 04:31:59;;;;;;;23.38;8.32;;;;;;;2.38;100.00;98328.81;12201580;19;20148;-84
2023/12/01 04:36:06;;;;;;;21.67;8.68;;;;;;;2.40;100.00;98332.09;12196166;19;20064;-85
2023/12/01 04:40:15;;;;;;;21.63;9.35;;;;;;;2.35;100.00;98333.88;12177794;19;20007;-85
2023/12/01 04:44:17;;;;;;;21.83;8.55;;;;;;;2.36;100.00;98321.94;12198864;19;20050;-86
2023/12/01 04:48:20;;;;;;;25.77;10.02;;;;;;;2.39;100.00;98310.59;12194695;19;20007;-84
2023/12/01 04:52:22;;;;;;;16.40;7.70;;;;;;;2.39;100.00;98316.03;12173869;19;20649;-83
2023/12/01 04:56:24;;;;;;;20.75;8.23;;;;;;;2.34;100.00;98316.72;12196939;19;20014;-85
2023/12/01 05:00:27;;;;;;;;;;;;;;;2.32;100.00;98321.59;12198253;19;19999;-85
2023/12/01 05:04:29;;;;;;;20.42;7.55;;;;;;;2.25;100.00;98327.09;12180627;19;19914;-84
2023/12/01 05:08:31;;;;;;;24.15;8.43;;;;;;;2.18;100.00;98331.81;12193726;19;20625;-86
2023/12/01 05:12:34;;;;;;;18.75;7.65;;;;;;;2.23;100.00;98322.97;12197619;19;20006;-86
2023/12/01 05:16:36;;;;;;;21.27;8.18;;;;;;;2.26;100.00;98323.34;12173093;19;20386;-87
2023/12/01 05:20:39;;;;;;;18.02;8.10;;;;;;;2.17;100.00;98343.75;12193841;19;20015;-85
2023/12/01 05:24:41;;;;;;;17.15;7.35;;;;;;;2.23;100.00;98350.13;12193150;19;20010;-84
2023/12/01 05:28:43;;;;;;;22.60;8.40;;;;;;;2.27;100.00;98357.59;12172385;19;20011;-85
2023/12/01 05:32:48;;;;;;;22.08;8.73;;;;;;;2.27;100.00;98354.91;12193237;19;20011;-86
2023/12/01 05:36:55;;;;;;;23.42;8.57;;;;;;;2.26;100.00;98366.84;12176281;19;20002;-87
2023/12/01 05:41:21;;;;;;;18.05;7.65;;;;;;;2.26;100.00;98372.28;12198327;19;20006;-88
2023/12/01 05:45:35;;;;;;;23.95;8.65;;;;;;;2.29;100.00;98365.56;12195660;19;20010;-90
2023/12/01 05:50:05;;;;;;;19.35;8.13;;;;;;;2.31;100.00;98368.03;12176219;19;20229;-88
2023/12/01 05:54:24;;;;;;;23.77;9.50;;;;;;;2.36;100.00;98376.31;12198299;19;20010;-87
2023/12/01 05:58:33;;;;;;;19.70;8.50;;;;;;;2.38;100.00;98379.59;12194528;19;20049;-87
2023/12/01 06:02:36;;;;;;;16.83;7.53;;;;;;;2.23;100.00;98394.47;12203568;19;20002;-88
2023/12/01 06:06:38;;;;;;;18.35;8.13;;;;;;;2.31;100.00;98397.91;12201846;19;20017;-88
2023/12/01 06:10:40;;;;;;;19.53;8.17;;;;;;;2.37;100.00;98416.84;12169571;19;19999;-86
2023/12/01 06:14:42;;;;;;;16.15;6.68;;;;;;;2.40;100.00;98421.00;12202560;19;20042;-86
2023/12/01 06:18:44;;;;;;;17.45;7.45;;;;;;;2.37;100.00;98426.91;12203159;19;20019;-86
2023/12/01 06:22:53;;;;;;;19.33;7.90;;;;;;;2.41;100.00;98420.78;12186389;19;20015;-86
2023/12/01 06:26:59;;;;;;;17.75;7.68;;;;;;;2.39;100.00;98420.16;12202976;19;20007;-87
2023/12/01 06:31:05;;;;;;;17.25;7.60;;;;;;;2.40;100.00;98407.41;12197251;19;20073;-86
2023/12/01 06:35:15;;;;;;;21.42;8.13;;;;;;;2.46;100.00;98414.63;12241689;19;20002;-87
2023/12/01 07:17:44;;;;;;;25.63;11.60;;;;;;;2.31;100.00;98452.28;12215041;19;20046;-85
2023/12/01 08:10:21;;;;;;;21.80;9.05;;;;;;;2.54;100.00;98484.19;12197533;19;20021;-87
2023/12/01 08:34:54;;;;;;;20.83;9.10;;;;;;;2.58;100.00;98488.09;12082063;19;20003;-87
2023/12/01 08:39:09;;;;;;;19.85;9.68;;;;;;;2.60;100.00;98488.69;12200679;19;20012;-86
2023/12/01 08:43:11;;;;;;;19.17;8.27;;;;;;;2.59;100.00;98489.75;12183713;19;20027;-85
2023/12/01 08:47:21;;;;;;;19.67;8.43;;;;;;;2.68;100.00;98485.66;12197682;19;20063;-86
2023/12/01 08:52:09;;;;;;;22.55;8.48;;;;;;;2.83;100.00;98491.50;12218352;19;19999;-87
2023/12/01 08:56:15;;;;;;;18.63;8.32;;;;;;;2.77;100.00;98483.41;12189394;19;20003;-86
2023/12/01 09:00:30;;;;;;;19.85;8.30;;;;;;;2.68;100.00;98494.66;12204111;19;20011;-87
2023/12/01 09:04:33;;;;;;;17.00;7.78;;;;;;;2.69;100.00;98501.75;12182383;19;20057;-86
2023/12/01 09:09:39;;;;;;;18.65;8.07;;;;;;;2.70;100.00;98519.72;12199537;19;20498;-87
2023/12/01 09:13:55;;;;;;;19.23;8.43;;;;;;;2.61;100.00;98526.53;12173837;19;20050;-85
2023/12/01 09:17:57;;;;;;;20.80;9.07;;;;;;;2.67;100.00;98520.16;12198540;19;20748;-85
2023/12/01 09:22:44;;;;;;;23.25;9.70;;;;;;;2.82;100.00;98532.53;12217425;19;20039;-86
2023/12/01 09:26:47;;;;;;;20.08;9.00;;;;;;;2.81;100.00;98520.00;12199451;19;20002;-87
2023/12/01 09:31:21;;;;;;;30.42;11.43;;;;;;;2.86;100.00;98484.78;12198556;19;20189;-86
2023/12/01 09:36:02;;;;;;;21.35;9.27;;;;;;;2.88;100.00;98502.50;12239183;19;19999;-85
2023/12/01 09:40:24;;;;;;;22.02;9.68;;;;;;;2.92;100.00;98509.16;12190952;19;20002;-86
2023/12/01 09:50:35;;;;;;;20.00;9.48;;;;;;;2.94;100.00;98506.19;12203145;19;20466;-85
2023/12/01 09:54:59;;;;;;;22.73;10.02;;;;;;;3.01;100.00;98514.28;12177862;19;20924;-85
2023/12/01 09:59:16;;;;;;;24.50;10.20;;;;;;;3.03;100.00;98514.84;12201826;19;20014;-86
2023/12/01 10:03:19;;;;;;;23.48;9.73;;;;;;;3.06;100.00;98515.22;12199925;19;20027;-86
2023/12/01 10:07:23;;;;;;;22.20;10.13;;;;;;;3.07;100.00;98522.31;12188390;19;20020;-86
2023/12/01 10:11:26;;;;;;;22.85;9.25;;;;;;;3.09;100.00;98524.81;12206941;19;20011;-86
2023/12/01 10:15:33;;;;;;;22.77;10.50;;;;;;;3.06;100.00;98517.94;12208738;19;20006;-85
2023/12/01 10:19:53;;;;;;;23.73;10.02;;;;;;;3.11;100.00;98515.34;12187056;19;20003;-84
2023/12/01 10:23:55;;;;;;;24.52;11.05;;;;;;;3.03;100.00;98518.41;12214790;19;20003;-83
2023/12/01 10:27:57;;;;;;;22.13;9.60;;;;;;;3.07;100.00;98514.16;12187387;19;20108;-83
2023/12/01 10:32:03;;;;;;;24.15;10.55;;;;;;;3.18;100.00;98526.97;12209929;19;20853;-84
2023/12/01 10:36:07;;;;;;;23.70;9.68;;;;;;;3.20;100.00;98519.38;12210036;19;20017;-84
2023/12/01 10:40:38;;;;;;;24.02;10.02;;;;;;;3.22;100.00;98497.38;12207728;19;20065;-85
2023/12/01 10:45:18;;;;;;;23.27;10.35;;;;;;;3.33;100.00;98484.84;12088684;19;2004457;-84
2023/12/01 10:49:21;;;;;;;22.05;10.27;;;;;;;3.25;100.00;98477.03;12189383;19;20006;-84
2023/12/01 10:53:26;;;;;;;19.98;8.43;;;;;;;3.26;100.00;98484.13;12206178;19;20007;-83
2023/12/01 10:57:39;;;;;;;21.42;10.00;;;;;;;3.24;100.00;98492.50;12206820;19;20014;-84
2023/12/01 11:01:41;;;;;;;34.33;12.80;;;;;;;3.23;100.00;98484.59;12184721;19;20002;-84
2023/12/01 11:06:15;;;;;;;29.58;11.50;;;;;;;3.40;100.00;98499.19;12210034;19;20007;-85
2023/12/01 11:10:44;;;;;;;20.92;9.88;;;;;;;3.64;100.00;98456.44;12188584;19;20368;-85
2023/12/01 11:14:52;;;;;;;24.63;9.95;;;;;;;3.79;100.00;98466.84;12201546;19;20007;-85
2023/12/01 11:18:56;;;;;;;19.42;9.30;;;;;;;3.92;100.00;98482.09;12184468;19;20045;-85
2023/12/01 11:23:24;;;;;;;17.30;8.93;;;;;;;3.85;100.00;98471.34;12205591;19;20023;-85
2023/12/01 11:27:32;;;;;;;15.32;7.50;;;;;;;3.60;100.00;98486.06;12207523;19;20008;-86
2023/12/01 11:31:50;;;;;;;17.17;7.80;;;;;;;3.54;100.00;98488.88;12191271;19;20031;-86
2023/12/01 11:40:41;;;;;;;15.27;7.60;;;;;;;3.40;100.00;98463.78;12204931;19;20674;-85
2023/12/01 11:45:08;;;;;;;16.55;8.73;;;;;;;3.53;100.00;98476.31;12202705;19;20006;-86
2023/12/01 11:59:02;;;;;;;13.45;5.95;;;;;;;3.27;100.00;98469.44;12200670;19;20030;-85
2023/12/01 12:03:20;;;;;;;13.45;5.95;;;;;;;3.32;100.00;98470.41;12199390;19;20010;-85
2023/12/01 12:07:30;;;;;;;12.73;6.18;;;;;;;3.37;100.00;98456.91;12175980;19;20312;-85
2023/12/01 12:11:50;;;;;;;11.18;5.35;;;;;;;3.51;100.00;98479.31;12209899;19;20006;-85
2023/12/01 12:16:15;;;;;;;14.52;6.18;;;;;;;3.60;100.00;98480.59;12199672;19;20075;-84
2023/12/01 12:20:30;;;;;;;22.92;10.00;;;;;;;3.50;100.00;98485.78;12198625;19;20014;-84
2023/12/01 12:24:34;;;;;;;11.45;6.07;;;;;;;3.35;99.93;98494.44;12206374;19;20014;-85
2023/12/01 12:28:53;;;;;;;11.32;6.25;;;;;;;3.20;100.00;98510.41;12185779;19;20006;-84
2023/12/01 12:33:00;;;;;;;12.70;5.38;;;;;;;3.25;100.00;98494.19;12207255;19;20007;-85
2023/12/01 12:37:03;;;;;;;;;;;;;;;3.27;100.00;98502.13;12185789;19;20025;-84
2023/12/01 12:41:25;;;;;;;12.30;5.35;;;;;;;3.31;100.00;98511.50;12217495;19;20742;-85
2023/12/01 12:45:27;;;;;;;11.50;4.97;;;;;;;3.17;100.00;98519.84;12226676;19;20007;-85
2023/12/01 12:49:32;;;;;;;73.57;27.58;;;;;;;3.23;100.00;98522.72;12207298;19;20009;-82
2023/12/01 12:53:34;;;;;;;24.45;11.15;;;;;;;3.22;100.00;98523.78;12264106;19;19999;-87
2023/12/01 12:57:36;;;;;;;61.07;23.00;;;;;;;3.26;100.00;98520.34;12258937;19;20325;-84
2023/12/01 13:01:38;;;;;;;12.60;7.22;;;;;;;3.33;100.00;98510.19;12200308;19;20072;-83
2023/12/01 13:05:40;;;;;;;18.75;7.97;;;;;;;3.34;100.00;98498.22;12216669;19;20043;-85
2023/12/01 13:09:42;;;;;;;21.77;10.53;;;;;;;3.41;100.00;98500.84;12214552;19;20006;-83
2023/12/01 13:13:45;;;;;;;13.30;6.32;;;;;;;3.46;100.00;98500.13;12186927;19;20039;-83
2023/12/01 13:17:47;;;;;;;27.48;9.65;;;;;;;3.35;100.00;98505.31;12199858;19;20485;-83
2023/12/01 13:21:50;;;;;;;76.37;29.60;;;;;;;3.29;100.00;98486.38;12203154;19;20014;-82
2023/12/01 13:25:56;;;;;;;75.15;26.30;;;;;;;3.25;100.00;98490.66;12175234;19;20007;-83
2023/12/01 13:29:58;;;;;;;42.47;15.30;;;;;;;3.11;100.00;98481.84;12198038;19;20030;-83
2023/12/01 13:34:01;;;;;;;18.38;7.85;;;;;;;3.02;100.00;98475.09;12182200;19;20011;-82
2023/12/01 13:38:07;;;;;;;10.25;5.07;;;;;;;2.90;100.00;98477.78;12200531;19;20560;-86
2023/12/01 13:42:22;;;;;;;10.20;6.13;;;;;;;2.85;100.00;98485.81;12213864;19;20487;-85
2023/12/01 13:46:24;;;;;;;;;;;;;;;2.90;100.00;98492.22;12180943;19;20585;-84
2023/12/01 13:50:26;;;;;;;13.18;6.28;;;;;;;2.87;100.00;98494.59;12199064;19;19917;-86
2023/12/01 13:54:34;;;;;;;13.55;6.00;;;;;;;2.81;100.00;98498.22;12202183;19;20043;-85
2023/12/01 13:58:40;;;;;;;8.90;5.20;;;;;;;2.77;100.00;98484.28;12177587;19;20025;-85
2023/12/01 14:02:49;;;;;;;9.88;4.75;;;;;;;2.72;100.00;98504.00;12202044;19;20007;-85
2023/12/01 14:06:53;;;;;;;12.15;6.82;;;;;;;2.71;100.00;98501.53;12184818;19;20007;-84
2023/12/01 14:11:02;;;;;;;9.95;4.88;;;;;;;2.79;100.00;98500.34;12200180;19;20074;-84
2023/12/01 14:15:06;;;;;;;9.38;5.55;;;;;;;2.68;100.00;98505.53;12196036;19;20014;-86
2023/12/01 14:19:08;;;;;;;10.30;5.53;;;;;;;2.66;100.00;98504.91;12181029;19;20023;-84
2023/12/01 14:23:10;;;;;;;16.00;6.18;;;;;;;2.69;100.00;98503.63;12203407;19;20077;-84
2023/12/01 14:27:13;;;;;;;;;;;;;;;2.73;100.00;98515.69;12198022;19;20023;-85
2023/12/01 14:31:16;;;;;;;15.25;6.75;;;;;;;2.70;100.00;98521.59;12178239;19;19911;-83
2023/12/01 14:35:18;;;;;;;13.85;6.88;;;;;;;2.66;100.00;98504.91;12196130;19;20019;-82
2023/12/01 14:39:45;;;;;;;16.25;7.47;;;;;;;2.70;100.00;98508.81;12203406;19;20066;-83
2023/12/01 14:43:51;;;;;;;15.65;6.88;;;;;;;2.69;100.00;98515.34;12180403;19;20014;-84
2023/12/01 14:47:53;;;;;;;12.57;6.10;;;;;;;2.69;100.00;98520.78;12194972;19;20066;-84
2023/12/01 14:51:56;;;;;;;15.02;7.00;;;;;;;2.68;100.00;98516.41;12181893;19;20027;-84
2023/12/01 14:55:57;;;;;;;15.60;7.45;;;;;;;2.66;100.00;98521.25;12211402;19;20010;-83
2023/12/01 15:00:17;;;;;;;14.40;6.63;;;;;;;2.66;100.00;98525.84;12210450;19;20014;-83
2023/12/01 15:04:25;;;;;;;16.33;6.82;;;;;;;2.63;100.00;98539.91;12186229;19;20484;-82
2023/12/01 15:08:27;;;;;;;25.17;8.38;;;;;;;2.57;100.00;98538.13;12214222;19;20010;-83
2023/12/01 15:12:29;;;;;;;14.77;7.07;;;;;;;2.53;100.00;98548.63;12223030;19;20006;-84
2023/12/01 15:16:32;;;;;;;17.67;6.70;;;;;;;2.56;100.00;98572.63;12197485;19;20002;-84
2023/12/01 15:20:34;;;;;;;15.38;6.53;;;;;;;2.56;100.00;98588.09;12210736;19;20023;-83
2023/12/01 15:24:39;;;;;;;14.88;7.18;;;;;;;2.51;100.00;98591.53;12159400;19;20046;-85
2023/12/01 15:28:43;;;;;;;35.42;14.10;;;;;;;2.49;100.00;98580.84;12229032;19;20007;-83
2023/12/01 15:32:45;;;;;;;18.70;8.10;;;;;;;2.49;100.00;98580.84;12255887;19;20008;-84
2023/12/01 15:36:47;;;;;;;73.57;27.20;;;;;;;2.44;100.00;98558.13;12257316;19;20028;-84
2023/12/01 15:40:49;;;;;;;20.02;10.20;;;;;;;2.40;100.00;98554.22;12223387;19;20002;-85
2023/12/01 15:44:50;;;;;;;27.92;12.63;;;;;;;2.32;100.00;98555.38;12228328;19;20010;-84
2023/12/01 15:48:54;;;;;;;26.17;10.50;;;;;;;2.26;100.00;98561.69;12199402;19;20006;-85
2023/12/01 15:53:01;;;;;;;29.80;12.50;;;;;;;2.18;100.00;98560.13;12217820;19;20010;-84
2023/12/01 15:57:03;;;;;;;21.35;9.60;;;;;;;2.21;100.00;98539.81;12219642;19;20072;-84
2023/12/01 16:01:05;;;;;;;34.10;15.50;;;;;;;2.15;100.00;98516.25;12191647;19;20007;-83
2023/12/01 16:05:30;;;;;;;23.33;10.73;;;;;;;2.15;100.00;98522.53;12210548;19;20131;-85
2023/12/01 16:09:37;;;;;;;30.30;11.90;;;;;;;2.09;100.00;98504.41;12222532;19;20011;-84
2023/12/01 16:13:49;;;;;;;36.50;15.05;;;;;;;2.14;100.00;98520.88;12203811;19;20014;-84
2023/12/01 16:17:54;;;;;;;25.08;11.75;;;;;;;2.07;100.00;98530.97;12213809;19;20003;-84
2023/12/01 16:21:58;;;;;;;17.38;8.07;;;;;;;2.02;100.00;98525.38;12190085;19;20002;-83
2023/12/01 16:26:00;;;;;;;20.05;8.18;;;;;;;1.90;100.00;98543.47;12206985;19;20419;-84
2023/12/01 16:30:03;;;;;;;21.35;8.60;;;;;;;1.93;100.00;98567.47;12209563;19;20010;-83
2023/12/01 16:34:04;;;;;;;19.90;7.70;;;;;;;1.77;100.00;98558.03;12184869;19;20025;-84
2023/12/01 16:38:07;;;;;;;20.60;8.27;;;;;;;1.80;100.00;98577.41;12210741;19;20012;-86
2023/12/01 16:42:23;;;;;;;18.95;8.05;;;;;;;1.87;100.00;98587.38;12222167;19;20568;-82
2023/12/01 16:46:25;;;;;;;18.67;7.45;;;;;;;1.81;100.00;98597.25;12188702;19;20469;-84
2023/12/01 16:50:30;;;;;;;19.08;7.47;;;;;;;1.74;100.00;98594.59;12227703;19;20026;-84
2023/12/01 16:54:36;;;;;;;19.55;7.45;;;;;;;1.74;100.00;98567.44;12216292;19;20584;-85
2023/12/01 16:58:40;;;;;;;18.00;7.68;;;;;;;1.74;100.00;98572.06;12188720;19;20035;-83
2023/12/01 17:02:42;;;;;;;18.58;7.53;;;;;;;1.70;100.00;98585.25;12212015;19;20117;-83
2023/12/01 17:06:44;;;;;;;17.43;7.63;;;;;;;1.74;100.00;98585.63;12217602;19;20029;-83
2023/12/01 17:10:46;;;;;;;16.92;8.15;;;;;;;1.65;100.00;98582.38;12185971;19;20264;-85
2023/12/01 17:14:47;;;;;;;17.67;7.27;;;;;;;1.75;100.00;98576.44;12196814;19;20003;-85
2023/12/01 17:18:49;;;;;;;16.77;6.70;;;;;;;1.67;100.00;98577.56;12194310;19;20006;-83
2023/12/01 17:22:51;;;;;;;14.37;6.27;;;;;;;1.74;100.00;98559.31;12176079;19;20007;-83
2023/12/01 17:26:53;;;;;;;11.82;5.47;;;;;;;1.67;100.00;98555.84;12197029;19;20707;-83
2023/12/01 17:30:55;;;;;;;15.43;7.93;;;;;;;1.69;100.00;98551.00;12175291;19;20010;-84
2023/12/01 17:35:00;;;;;;;14.57;6.50;;;;;;;1.69;100.00;98551.00;12194822;19;20019;-83
2023/12/01 17:39:02;;;;;;;14.02;6.13;;;;;;;1.68;100.00;98548.50;12193670;19;20002;-82
2023/12/01 17:43:04;;;;;;;12.10;5.82;;;;;;;1.69;100.00;98552.88;12172786;19;20098;-83
2023/12/01 17:47:06;;;;;;;11.90;6.68;;;;;;;1.60;100.00;98568.63;12197060;19;20035;-84
2023/12/01 17:51:08;;;;;;;18.43;8.13;;;;;;;1.61;100.00;98573.03;12200984;19;20009;-84
2023/12/01 17:55:10;;;;;;;16.02;8.82;;;;;;;1.60;100.00;98572.16;12176897;19;20108;-85
2023/12/01 17:59:24;;;;;;;13.45;6.30;;;;;;;1.45;100.00;98577.09;12201237;19;20010;-83
2023/12/01 18:03:26;;;;;;;11.00;6.00;;;;;;;1.33;99.87;98570.72;12206032;19;20026;-85
2023/12/01 18:07:28;;;;;;;14.20;6.60;;;;;;;1.35;100.00;98574.88;12181111;19;20011;-83
2023/12/01 18:11:30;;;;;;;12.88;7.13;;;;;;;1.33;100.00;98568.00;12196512;19;20376;-83
2023/12/01 18:15:32;;;;;;;8.82;5.38;;;;;;;1.28;100.00;98582.25;12202899;19;20006;-84
2023/12/01 18:19:34;;;;;;;13.37;7.40;;;;;;;1.32;100.00;98580.75;12175456;19;20023;-84
2023/12/01 18:23:51;;;;;;;15.00;5.95;;;;;;;1.25;99.61;98601.69;12199871;19;20043;-83
2023/12/01 18:27:54;;;;;;;17.90;6.43;;;;;;;1.25;99.46;98601.69;12194407;19;20010;-84
2023/12/01 18:32:08;;;;;;;36.03;12.00;;;;;;;1.24;99.57;98613.56;12225352;19;20018;-85
2023/12/01 18:36:13;;;;;;;27.88;8.55;;;;;;;1.27;99.34;98617.75;12226885;19;20017;-82
2023/12/01 18:40:46;;;;;;;33.35;10.10;;;;;;;1.32;99.21;98617.94;12219330;19;20006;-85
2023/12/01 18:45:00;;;;;;;12.48;6.55;;;;;;;1.24;97.96;98620.91;12243671;19;20002;-83
2023/12/01 18:49:02;;;;;;;58.87;16.27;;;;;;;1.26;98.22;98622.34;12218809;19;20014;-84
2023/12/01 18:53:04;;;;;;;18.13;7.27;;;;;;;1.28;98.78;98625.69;12233317;19;20356;-86
2023/12/01 19:01:41;;;;;;;35.97;10.70;;;;;;;1.24;96.88;98629.84;12247146;19;20071;-82
2023/12/01 19:05:43;;;;;;;29.23;9.13;;;;;;;1.15;97.16;98625.75;12260949;19;19998;-84
2023/12/01 19:09:45;;;;;;;27.50;9.52;;;;;;;1.06;97.07;98632.47;12244531;19;20017;-86
2023/12/01 19:13:47;;;;;;;21.08;9.88;;;;;;;1.06;97.48;98627.06;12197296;19;20015;-86
2023/12/01 19:17:49;;;;;;;12.30;5.67;;;;;;;1.00;97.60;98626.03;12221781;19;20623;-85
2023/12/01 19:21:51;;;;;;;12.17;5.97;;;;;;;1.07;98.84;98618.72;12205535;19;20026;-85
2023/12/01 19:25:53;;;;;;;25.08;9.90;;;;;;;1.07;97.73;98628.72;12230016;19;20007;-86
2023/12/01 19:29:55;;;;;;;17.10;7.73;;;;;;;1.05;98.20;98636.25;12222817;19;20021;-86
2023/12/01 19:34:00;;;;;;;28.17;11.83;;;;;;;0.92;97.79;98645.28;12196395;19;20030;-87
2023/12/01 19:38:02;;;;;;;41.50;15.07;;;;;;;0.98;97.80;98646.28;12214205;19;20015;-87
2023/12/01 19:42:04;;;;;;;15.90;7.72;;;;;;;0.96;96.87;98640.28;12211661;19;20014;-85
2023/12/01 19:46:39;;;;;;;16.00;8.63;;;;;;;1.00;97.41;98625.22;12207479;19;20011;-86
2023/12/01 19:51:38;;;;;;;28.95;11.02;;;;;;;1.03;98.05;98617.47;12212340;19;20010;-86
2023/12/01 19:56:03;;;;;;;17.67;6.80;;;;;;;1.05;98.14;98620.81;12176068;19;20049;-85
2023/12/01 20:00:06;;;;;;;16.88;8.50;;;;;;;1.05;97.45;98609.94;12204599;19;20042;-86
2023/12/01 20:04:12;;;;;;;17.90;8.82;;;;;;;0.99;97.29;98616.25;12184075;19;20007;-85
2023/12/01 20:08:14;;;;;;;18.70;9.73;;;;;;;1.06;98.04;98629.78;12209999;19;20062;-86
2023/12/01 20:12:17;;;;;;;17.40;7.80;;;;;;;1.15;98.03;98647.44;12216150;19;19999;-86
2023/12/01 20:16:19;;;;;;;19.27;8.40;;;;;;;1.16;97.80;98645.56;12196898;19;20027;-86
2023/12/01 20:20:22;;;;;;;15.77;6.57;;;;;;;1.06;97.19;98648.75;12221864;19;20018;-87
2023/12/01 20:24:24;;;;;;;19.05;8.30;;;;;;;1.10;97.71;98655.41;12211113;19;20497;-86
2023/12/01 20:28:26;;;;;;;11.02;5.20;;;;;;;1.07;97.33;98645.00;12193857;19;20039;-87
2023/12/01 20:32:28;;;;;;;17.40;7.80;;;;;;;0.97;97.01;98637.31;12216710;19;20015;-87
2023/12/01 20:36:31;;;;;;;13.35;6.28;;;;;;;0.95;97.60;98639.41;12215887;19;20014;-87
2023/12/01 20:40:33;;;;;;;11.07;5.75;;;;;;;0.93;97.65;98627.16;12196916;19;20691;-87
2023/12/01 20:44:37;;;;;;;12.48;7.25;;;;;;;0.86;98.18;98638.00;12218053;19;20021;-86
2023/12/01 20:48:39;;;;;;;15.82;6.32;;;;;;;0.94;98.78;98645.06;12214419;19;20010;-84
2023/12/01 20:52:42;;;;;;;16.42;8.50;;;;;;;0.96;99.27;98656.53;12194098;19;20011;-85
2023/12/01 20:56:50;;;;;;;12.85;6.53;;;;;;;0.95;100.00;98658.41;12218748;19;20034;-85
2023/12/01 21:00:53;;;;;;;14.90;4.82;;;;;;;0.87;100.00;98662.22;12220753;19;20006;-89
2023/12/01 21:04:55;;;;;;;13.63;6.32;;;;;;;0.85;100.00;98652.63;12198886;19;20416;-85